createdAt,value
2023-02-28T00:01:56.701Z,14.00
2023-02-28T00:04:25.185Z,12.30
2023-02-28T00:06:55.084Z,13.20
2023-02-28T00:09:23.249Z,11.30
2023-02-28T00:11:54.972Z,13.10
2023-02-28T00:14:24.519Z,13.30
2023-02-28T00:16:53.144Z,12.40
2023-02-28T00:19:21.332Z,15.30
2023-02-28T00:21:49.802Z,12.30
2023-02-28T00:24:17.874Z,13.90
2023-02-28T00:26:45.992Z,13.10
2023-02-28T00:29:14.367Z,11.50
2023-02-28T00:31:42.481Z,11.20
2023-02-28T00:34:10.594Z,14.10
2023-02-28T00:36:46.503Z,14.10
2023-02-28T00:39:14.755Z,13.80
2023-02-28T00:41:47.737Z,11.80
2023-02-28T00:44:15.920Z,12.90
2023-02-28T00:46:43.953Z,11.80
2023-02-28T00:49:12.839Z,12.60
2023-02-28T00:51:41.271Z,12.50
2023-02-28T00:54:10.169Z,12.90
2023-02-28T00:56:38.414Z,13.70
2023-02-28T00:59:06.876Z,13.00
2023-02-28T01:01:35.749Z,12.30
2023-02-28T01:04:04.900Z,14.20
2023-02-28T01:06:33.545Z,13.60
2023-02-28T01:09:01.712Z,12.70
2023-02-28T01:11:34.484Z,13.90
2023-02-28T01:14:03.070Z,13.10
2023-02-28T01:16:31.668Z,12.10
2023-02-28T01:18:59.790Z,13.60
2023-02-28T01:21:28.176Z,13.60
2023-02-28T01:23:58.450Z,13.70
2023-02-28T01:26:26.771Z,12.60
2023-02-28T01:28:55.057Z,15.10
2023-02-28T01:31:23.494Z,13.10
2023-02-28T01:33:52.911Z,13.60
2023-02-28T01:36:22.807Z,14.40
2023-02-28T01:38:51.728Z,13.90
2023-02-28T01:41:24.718Z,14.70
2023-02-28T01:43:54.210Z,18.60
2023-02-28T01:46:22.707Z,15.10
2023-02-28T01:48:55.171Z,13.80
2023-02-28T01:51:35.484Z,14.10
2023-02-28T01:54:14.810Z,13.20
2023-02-28T01:56:49.252Z,12.80
2023-02-28T01:59:26.344Z,13.50
2023-02-28T02:01:55.076Z,13.70
2023-02-28T02:04:24.840Z,13.30
2023-02-28T02:06:53.011Z,12.30
2023-02-28T02:09:24.121Z,14.50
2023-02-28T02:11:54.868Z,12.60
2023-02-28T02:14:47.803Z,15.70
2023-02-28T02:17:22.645Z,15.70
2023-02-28T02:20:04.530Z,16.30
2023-02-28T02:23:14.774Z,16.20
2023-02-28T02:25:49.719Z,16.00
2023-02-28T02:28:37.655Z,16.50
2023-02-28T02:31:06.115Z,16.50
2023-02-28T02:34:09.557Z,17.20
2023-02-28T02:37:23.040Z,18.20
2023-02-28T02:39:55.321Z,18.90
2023-02-28T02:42:30.720Z,21.30
2023-02-28T02:45:05.059Z,21.10
2023-02-28T02:47:33.962Z,18.70
2023-02-28T02:50:05.749Z,20.00
2023-02-28T02:52:44.004Z,18.70
2023-02-28T02:55:13.286Z,19.10
2023-02-28T02:57:48.434Z,19.70
2023-02-28T03:00:18.669Z,20.80
2023-02-28T03:02:49.021Z,17.70
2023-02-28T03:05:25.348Z,20.10
2023-02-28T03:07:53.414Z,19.10
2023-02-28T03:10:33.824Z,18.50
2023-02-28T03:13:19.643Z,19.10
2023-02-28T03:16:13.334Z,18.50
2023-02-28T03:18:50.753Z,16.40
2023-02-28T03:21:28.785Z,14.80
2023-02-28T03:24:06.649Z,14.80
2023-02-28T03:26:36.648Z,14.80
2023-02-28T03:29:21.443Z,17.50
2023-02-28T03:31:55.137Z,16.90
2023-02-28T03:34:39.027Z,15.60
2023-02-28T03:37:10.214Z,16.30
2023-02-28T03:39:48.305Z,17.20
2023-02-28T03:42:28.961Z,18.00
2023-02-28T03:45:05.188Z,17.20
2023-02-28T03:47:39.859Z,15.20
2023-02-28T03:50:22.652Z,18.40
2023-02-28T03:52:53.603Z,18.80
2023-02-28T03:55:21.731Z,18.70
2023-02-28T03:58:12.448Z,16.30
2023-02-28T04:00:43.547Z,16.70
2023-02-28T04:03:12.126Z,14.70
2023-02-28T04:05:54.853Z,14.00
2023-02-28T04:08:23.559Z,13.90
2023-02-28T04:11:02.398Z,14.70
2023-02-28T04:13:30.699Z,16.20
2023-02-28T04:15:59.097Z,14.20
2023-02-28T04:18:29.417Z,13.20
2023-02-28T04:21:01.318Z,12.50
2023-02-28T04:23:29.887Z,13.20
2023-02-28T04:25:58.906Z,15.00
2023-02-28T04:28:32.302Z,12.80
2023-02-28T04:31:03.838Z,12.70
2023-02-28T04:33:33.156Z,13.50
2023-02-28T04:36:06.699Z,13.10
2023-02-28T04:38:35.808Z,14.00
2023-02-28T04:41:04.642Z,12.90
2023-02-28T04:43:33.217Z,15.20
2023-02-28T04:46:03.207Z,14.70
2023-02-28T04:48:33.032Z,11.70
2023-02-28T04:51:05.963Z,18.60
2023-02-28T04:53:40.098Z,14.60
2023-02-28T04:56:08.829Z,14.50
2023-02-28T04:58:36.963Z,12.50
2023-02-28T05:01:17.189Z,13.70
2023-02-28T05:03:45.542Z,12.90
2023-02-28T05:06:13.852Z,13.20
2023-02-28T05:08:43.221Z,12.40
2023-02-28T05:11:22.400Z,12.70
2023-02-28T05:13:51.100Z,13.20
2023-02-28T05:16:19.544Z,13.20
2023-02-28T05:18:48.386Z,12.80
2023-02-28T05:21:27.278Z,11.70
2023-02-28T05:23:56.263Z,12.60
2023-02-28T05:26:24.836Z,17.90
2023-02-28T05:28:53.110Z,12.90
2023-02-28T05:31:21.653Z,12.60
2023-02-28T05:33:49.888Z,11.20
2023-02-28T05:36:20.713Z,10.90
2023-02-28T05:38:49.363Z,11.70
2023-02-28T05:41:21.113Z,12.30
2023-02-28T05:43:49.493Z,10.40
2023-02-28T05:46:17.661Z,11.90
2023-02-28T05:48:47.996Z,12.00
2023-02-28T05:51:16.481Z,10.90
2023-02-28T05:53:45.475Z,12.20
2023-02-28T05:56:13.856Z,11.50
2023-02-28T05:58:43.677Z,10.60
2023-02-28T06:01:49.364Z,11.60
2023-02-28T06:04:31.070Z,10.20
2023-02-28T06:07:00.180Z,12.90
2023-02-28T06:09:33.721Z,9.60
2023-02-28T06:12:04.842Z,12.50
2023-02-28T06:14:34.441Z,14.20
2023-02-28T06:17:04.079Z,14.50
2023-02-28T06:19:33.398Z,10.60
2023-02-28T06:22:01.554Z,11.00
2023-02-28T06:24:31.456Z,9.60
2023-02-28T06:27:06.089Z,12.90
2023-02-28T06:29:35.808Z,10.70
2023-02-28T06:32:04.080Z,12.00
2023-02-28T06:34:36.964Z,10.50
2023-02-28T06:37:05.811Z,10.40
2023-02-28T06:39:40.407Z,11.70
2023-02-28T06:42:09.174Z,11.40
2023-02-28T06:44:37.427Z,10.70
2023-02-28T06:47:07.710Z,11.30
2023-02-28T06:49:40.259Z,10.90
2023-02-28T06:52:11.069Z,9.20
2023-02-28T06:54:42.387Z,11.00
2023-02-28T06:57:10.461Z,11.50
2023-02-28T06:59:38.855Z,14.30
2023-02-28T07:02:08.328Z,9.90
2023-02-28T07:04:41.723Z,10.10
2023-02-28T07:07:12.725Z,9.70
2023-02-28T07:09:41.947Z,9.50
2023-02-28T07:12:14.423Z,9.40
2023-02-28T07:14:42.581Z,9.60
2023-02-28T07:17:14.690Z,9.80
2023-02-28T07:19:43.381Z,10.00
2023-02-28T07:22:11.620Z,11.10
2023-02-28T07:24:39.797Z,11.30
2023-02-28T07:27:07.952Z,11.40
2023-02-28T07:29:39.371Z,10.80
2023-02-28T07:32:07.451Z,9.90
2023-02-28T07:34:35.965Z,9.60
2023-02-28T07:37:06.329Z,11.70
2023-02-28T07:39:34.984Z,11.40
2023-02-28T07:42:07.492Z,11.80
2023-02-28T07:44:36.610Z,10.50
2023-02-28T07:47:08.168Z,9.50
2023-02-28T07:49:37.685Z,11.90
2023-02-28T07:52:11.394Z,9.40
2023-02-28T07:54:44.729Z,9.70
2023-02-28T07:57:19.114Z,12.60
2023-02-28T07:59:47.334Z,9.40
2023-02-28T08:02:20.520Z,8.50
2023-02-28T08:04:52.205Z,9.10
2023-02-28T08:07:40.561Z,8.50
2023-02-28T08:10:14.093Z,10.50
2023-02-28T08:12:43.937Z,11.40
2023-02-28T08:15:12.851Z,9.40
2023-02-28T08:17:44.893Z,10.30
2023-02-28T08:20:13.338Z,9.90
2023-02-28T08:22:44.812Z,9.00
2023-02-28T08:25:14.262Z,12.20
2023-02-28T08:27:45.458Z,10.50
2023-02-28T08:30:15.304Z,8.10
2023-02-28T08:32:49.456Z,9.50
2023-02-28T08:35:17.567Z,9.80
2023-02-28T08:37:45.818Z,9.00
2023-02-28T08:40:19.255Z,9.90
2023-02-28T08:42:51.460Z,8.60
2023-02-28T08:45:20.292Z,8.60
2023-02-28T08:47:48.663Z,7.70
2023-02-28T08:50:17.753Z,10.70
2023-02-28T08:52:47.371Z,8.30
2023-02-28T08:55:15.632Z,9.00
2023-02-28T08:57:44.295Z,11.60
2023-02-28T09:00:14.784Z,10.40
2023-02-28T09:02:44.886Z,8.20
2023-02-28T09:05:16.519Z,8.70
2023-02-28T09:07:46.023Z,11.20
2023-02-28T09:10:15.408Z,9.50
2023-02-28T09:12:48.116Z,8.70
2023-02-28T09:15:19.917Z,10.00
2023-02-28T09:17:48.671Z,10.00
2023-02-28T09:20:23.405Z,9.90
2023-02-28T09:22:51.818Z,10.40
2023-02-28T09:25:20.281Z,9.50
2023-02-28T09:27:49.992Z,9.90
2023-02-28T09:30:18.547Z,9.40
2023-02-28T09:32:53.199Z,9.00
2023-02-28T09:35:25.497Z,9.20
2023-02-28T09:37:54.072Z,9.00
2023-02-28T09:40:25.867Z,10.30
2023-02-28T09:42:55.675Z,9.00
2023-02-28T09:45:37.698Z,13.40
2023-02-28T09:48:20.380Z,9.80
2023-02-28T09:51:24.822Z,9.70
2023-02-28T09:54:02.281Z,8.80
2023-02-28T09:56:43.107Z,9.50
2023-02-28T09:59:24.828Z,10.10
2023-02-28T10:01:56.391Z,8.00
2023-02-28T10:04:46.976Z,10.20
2023-02-28T10:07:34.549Z,10.90
2023-02-28T10:10:05.133Z,10.30
2023-02-28T10:12:34.006Z,8.90
2023-02-28T10:15:05.187Z,10.40
2023-02-28T10:17:49.424Z,10.50
2023-02-28T10:20:25.166Z,9.20
2023-02-28T10:23:13.827Z,8.90
2023-02-28T10:25:42.134Z,8.70
2023-02-28T10:28:15.515Z,10.40
2023-02-28T10:30:45.930Z,8.70
2023-02-28T10:33:24.229Z,9.50
2023-02-28T10:35:53.504Z,8.70
2023-02-28T10:38:47.697Z,10.50
2023-02-28T10:41:27.796Z,8.60
2023-02-28T10:44:23.692Z,7.90
2023-02-28T10:46:54.893Z,9.50
2023-02-28T10:49:24.898Z,9.30
2023-02-28T10:51:57.894Z,9.50
2023-02-28T10:54:30.898Z,9.20
2023-02-28T10:57:14.759Z,9.10
2023-02-28T10:59:43.045Z,10.50
2023-02-28T11:05:26.266Z,9.00
2023-02-28T11:08:03.605Z,11.60
2023-02-28T11:10:35.800Z,11.80
2023-02-28T11:13:07.484Z,9.60
2023-02-28T11:15:37.005Z,8.10
2023-02-28T11:18:21.491Z,10.00
2023-02-28T11:20:54.899Z,9.60
2023-02-28T11:23:30.205Z,9.30
2023-02-28T11:26:03.542Z,11.60
2023-02-28T11:28:36.714Z,10.10
2023-02-28T11:31:20.187Z,9.90
2023-02-28T11:33:51.416Z,7.30
2023-02-28T11:36:25.783Z,9.00
2023-02-28T11:38:55.438Z,9.30
2023-02-28T11:41:45.604Z,8.30
2023-02-28T11:44:26.169Z,12.40
2023-02-28T11:47:22.670Z,9.60
2023-02-28T11:49:58.690Z,8.60
2023-02-28T11:52:54.132Z,7.80
2023-02-28T11:55:33.732Z,7.70
2023-02-28T11:58:12.054Z,10.50
2023-02-28T12:00:59.935Z,8.90
2023-02-28T12:03:56.929Z,10.80
2023-02-28T12:06:41.685Z,12.40
2023-02-28T12:09:34.745Z,10.80
2023-02-28T12:12:02.891Z,9.70
2023-02-28T12:15:02.785Z,9.80
2023-02-28T12:17:48.044Z,11.70
2023-02-28T12:20:27.316Z,11.40
2023-02-28T12:23:29.565Z,10.90
2023-02-28T12:26:33.255Z,10.70
2023-02-28T12:29:25.165Z,12.20
2023-02-28T12:32:00.554Z,12.70
2023-02-28T12:34:32.741Z,10.00
2023-02-28T12:37:05.409Z,10.70
2023-02-28T12:39:50.505Z,11.00
2023-02-28T12:42:21.573Z,9.80
2023-02-28T12:45:42.920Z,8.90
2023-02-28T12:48:41.035Z,9.00
2023-02-28T12:51:10.101Z,10.00
2023-02-28T12:54:01.791Z,9.80
2023-02-28T12:56:49.080Z,11.00
2023-02-28T12:59:27.036Z,9.60
2023-02-28T13:02:01.465Z,10.70
2023-02-28T13:05:15.691Z,11.30
2023-02-28T13:08:09.775Z,10.30
2023-02-28T13:10:58.508Z,10.50
2023-02-28T13:13:33.028Z,9.70
2023-02-28T13:16:02.616Z,9.60
2023-02-28T13:18:40.902Z,13.80
2023-02-28T13:24:00.979Z,12.50
2023-02-28T13:26:39.013Z,11.00
2023-02-28T13:29:19.351Z,11.50
2023-02-28T13:32:09.864Z,10.10
2023-02-28T13:34:50.361Z,13.60
2023-02-28T13:37:22.801Z,13.00
2023-02-28T13:39:58.060Z,13.50
2023-02-28T13:42:32.924Z,15.20
2023-02-28T13:45:07.271Z,15.50
2023-02-28T13:47:54.442Z,14.80
2023-02-28T13:50:26.829Z,16.20
2023-02-28T13:53:07.383Z,15.20
2023-02-28T13:55:57.685Z,18.90
2023-02-28T13:58:32.452Z,14.40
2023-02-28T14:01:08.927Z,13.80
2023-02-28T14:04:08.739Z,18.90
2023-02-28T14:06:38.152Z,15.10
2023-02-28T14:09:13.008Z,15.30
2023-02-28T14:11:41.936Z,14.90
2023-02-28T14:14:48.979Z,16.70
2023-02-28T14:17:17.346Z,15.70
2023-02-28T14:19:51.450Z,16.10
2023-02-28T14:22:51.302Z,14.20
2023-02-28T14:25:22.900Z,15.60
2023-02-28T14:28:10.031Z,14.00
2023-02-28T14:30:54.118Z,15.80
2023-02-28T14:33:30.669Z,17.40
2023-02-28T14:36:14.907Z,15.20
2023-02-28T14:39:01.487Z,16.50
2023-02-28T14:41:40.238Z,15.20
2023-02-28T14:44:17.831Z,18.20
2023-02-28T14:46:47.420Z,15.30
2023-02-28T14:49:28.688Z,16.30
2023-02-28T14:52:20.581Z,16.90
2023-02-28T14:55:15.683Z,12.80
2023-02-28T15:00:41.367Z,11.10
2023-02-28T15:03:33.282Z,10.70
2023-02-28T15:06:03.735Z,13.60
2023-02-28T15:08:37.321Z,13.20
2023-02-28T15:11:08.468Z,13.70
2023-02-28T15:13:42.906Z,11.40
2023-02-28T15:16:21.325Z,9.50
2023-02-28T15:19:01.456Z,9.10
2023-02-28T15:21:36.400Z,9.40
2023-02-28T15:24:32.867Z,11.10
2023-02-28T15:27:06.089Z,11.30
2023-02-28T15:29:53.786Z,11.70
2023-02-28T15:32:34.261Z,10.00
2023-02-28T15:35:42.254Z,9.70
2023-02-28T15:38:34.856Z,10.50
2023-02-28T15:41:06.576Z,11.40
2023-02-28T15:43:42.848Z,9.10
2023-02-28T15:46:13.466Z,10.60
2023-02-28T15:48:49.220Z,18.90
2023-02-28T15:51:38.284Z,12.70
2023-02-28T15:54:12.430Z,11.80
2023-02-28T15:56:48.640Z,11.80
2023-02-28T15:59:22.350Z,10.30
2023-02-28T16:02:23.589Z,11.70
2023-02-28T16:05:04.204Z,9.60
2023-02-28T16:07:34.501Z,9.90
2023-02-28T16:10:03.316Z,10.90
2023-02-28T16:12:34.212Z,9.40
2023-02-28T16:15:20.983Z,7.30
2023-02-28T16:17:49.429Z,8.40
2023-02-28T16:20:22.877Z,8.80
2023-02-28T16:22:51.368Z,10.60
2023-02-28T16:25:25.005Z,10.90
2023-02-28T16:27:54.941Z,9.30
2023-02-28T16:30:25.323Z,9.60
2023-02-28T16:32:55.755Z,8.70
2023-02-28T16:35:24.401Z,11.60
2023-02-28T16:37:53.013Z,10.00
2023-02-28T16:40:26.604Z,9.70
2023-02-28T16:42:56.673Z,9.40
2023-02-28T16:45:26.622Z,8.40
2023-02-28T16:47:58.714Z,9.30
2023-02-28T16:50:28.967Z,10.70
2023-02-28T16:52:57.440Z,11.30
2023-02-28T16:55:26.800Z,9.50
2023-02-28T16:57:58.718Z,11.00
2023-02-28T17:00:28.424Z,12.30
2023-02-28T17:02:57.026Z,12.40
2023-02-28T17:05:25.497Z,13.20
2023-02-28T17:07:55.996Z,12.60
2023-02-28T17:10:26.140Z,13.10
2023-02-28T17:13:09.585Z,12.40
2023-02-28T17:15:44.655Z,14.30
2023-02-28T17:18:16.482Z,13.60
2023-02-28T17:20:46.628Z,15.70
2023-02-28T17:23:15.232Z,12.80
2023-02-28T17:25:57.716Z,12.80
2023-02-28T17:28:26.513Z,14.70
2023-02-28T17:30:55.360Z,14.00
2023-02-28T17:33:23.555Z,14.60
2023-02-28T17:35:51.981Z,13.00
2023-02-28T17:38:20.916Z,15.30
2023-02-28T17:40:49.400Z,15.40
2023-02-28T17:43:17.685Z,15.20
2023-02-28T17:45:45.871Z,15.90
2023-02-28T17:48:16.003Z,14.50
2023-02-28T17:50:44.738Z,18.50
2023-02-28T17:53:13.619Z,18.30
2023-02-28T17:55:42.218Z,17.50
2023-02-28T17:58:12.309Z,17.70
2023-02-28T18:00:42.636Z,13.20
2023-02-28T18:03:10.758Z,12.80
2023-02-28T18:05:39.540Z,12.10
2023-02-28T18:08:14.042Z,13.50
2023-02-28T18:10:42.597Z,11.70
2023-02-28T18:13:13.603Z,12.10
2023-02-28T18:15:41.787Z,11.90
2023-02-28T18:18:10.557Z,11.40
2023-02-28T18:20:38.835Z,11.60
2023-02-28T18:23:07.480Z,12.70
2023-02-28T18:25:35.693Z,12.80
2023-02-28T18:28:05.282Z,13.20
2023-02-28T18:30:37.489Z,12.70
2023-02-28T18:33:05.815Z,15.20
2023-02-28T18:35:37.516Z,13.40
2023-02-28T18:38:16.988Z,15.80
2023-02-28T18:40:56.065Z,14.30
2023-02-28T18:43:28.564Z,15.60
2023-02-28T18:45:56.780Z,15.50
2023-02-28T18:48:25.001Z,17.10
2023-02-28T18:50:53.346Z,17.60
2023-02-28T18:53:21.447Z,19.10
2023-02-28T18:55:49.999Z,17.30
2023-02-28T18:58:18.112Z,18.30
2023-02-28T19:00:47.855Z,17.60
2023-02-28T19:03:17.805Z,18.90
2023-02-28T19:05:47.754Z,20.00
2023-02-28T19:08:17.202Z,18.20
2023-02-28T19:10:46.915Z,18.20
2023-02-28T19:13:15.080Z,20.80
2023-02-28T19:15:47.987Z,17.90
2023-02-28T19:18:17.390Z,20.00
2023-02-28T19:20:50.768Z,21.10
2023-02-28T19:23:19.461Z,19.20
2023-02-28T19:25:47.676Z,22.00
2023-02-28T19:28:16.374Z,25.50
2023-02-28T19:30:49.100Z,21.40
2023-02-28T19:33:20.516Z,21.80
2023-02-28T19:35:48.743Z,27.60
2023-02-28T19:38:19.396Z,18.90
2023-02-28T19:40:47.532Z,24.40
2023-02-28T19:43:20.881Z,23.60
2023-02-28T19:45:54.817Z,21.80
2023-02-28T19:48:28.586Z,22.90
2023-02-28T19:51:03.441Z,22.50
2023-02-28T19:56:00.607Z,21.60
2023-02-28T19:58:29.347Z,22.40
2023-02-28T20:00:57.826Z,21.00
2023-02-28T20:03:26.333Z,22.00
2023-02-28T20:06:02.208Z,17.60
2023-02-28T20:08:30.512Z,18.60
2023-02-28T20:11:05.992Z,18.50
2023-02-28T20:13:38.081Z,19.80
2023-02-28T20:16:09.204Z,14.60
2023-02-28T20:18:38.186Z,14.60
2023-02-28T20:21:10.766Z,13.00
2023-02-28T20:23:39.968Z,13.40
2023-02-28T20:26:08.256Z,16.20
2023-02-28T20:28:36.547Z,14.70
2023-02-28T20:31:12.189Z,11.60
2023-02-28T20:33:41.899Z,15.10
2023-02-28T20:36:11.329Z,15.90
2023-02-28T20:38:39.692Z,11.90
2023-02-28T20:41:09.970Z,12.50
2023-02-28T20:43:38.697Z,11.60
2023-02-28T20:46:10.017Z,11.80
2023-02-28T20:48:38.762Z,10.70
2023-02-28T20:51:07.089Z,11.10
2023-02-28T20:53:35.993Z,11.60
2023-02-28T20:56:13.951Z,13.50
2023-02-28T20:58:45.667Z,12.20
2023-02-28T21:01:16.287Z,10.10
2023-02-28T21:03:49.597Z,10.40
2023-02-28T21:06:19.411Z,10.00
2023-02-28T21:08:50.193Z,10.80
2023-02-28T21:11:38.290Z,11.10
2023-02-28T21:14:10.810Z,9.90
2023-02-28T21:16:41.463Z,9.60
2023-02-28T21:19:10.701Z,9.70
2023-02-28T21:21:43.136Z,9.90
2023-02-28T21:24:12.321Z,10.80
2023-02-28T21:26:40.925Z,10.40
2023-02-28T21:29:13.210Z,10.00
2023-02-28T21:31:42.206Z,8.90
2023-02-28T21:34:11.332Z,11.50
2023-02-28T21:36:41.889Z,7.90
2023-02-28T21:39:18.514Z,8.60
2023-02-28T21:41:47.156Z,8.90
2023-02-28T21:44:18.854Z,9.30
2023-02-28T21:46:52.293Z,9.00
2023-02-28T21:49:20.698Z,8.70
2023-02-28T21:51:54.534Z,7.20
2023-02-28T21:54:24.113Z,9.40
2023-02-28T21:56:52.249Z,9.40
2023-02-28T21:59:20.400Z,9.30
2023-02-28T22:01:49.966Z,10.00
2023-02-28T22:04:21.595Z,8.40
2023-02-28T22:06:52.487Z,9.40
2023-02-28T22:09:20.775Z,10.30
2023-02-28T22:11:49.982Z,9.80
2023-02-28T22:14:19.628Z,9.60
2023-02-28T22:16:55.138Z,9.80
2023-02-28T22:19:24.326Z,11.20
2023-02-28T22:21:54.040Z,11.50
2023-02-28T22:24:24.646Z,10.40
2023-02-28T22:26:53.534Z,10.40
2023-02-28T22:29:22.023Z,10.90
2023-02-28T22:31:50.258Z,10.00
2023-02-28T22:34:20.293Z,10.00
2023-02-28T22:36:49.510Z,12.40
2023-02-28T22:39:17.602Z,9.70
2023-02-28T22:41:46.192Z,10.40
2023-02-28T22:44:23.159Z,10.80
2023-02-28T22:46:53.930Z,10.30
2023-02-28T22:49:22.278Z,11.00
2023-02-28T22:51:51.102Z,10.30
2023-02-28T22:54:19.502Z,12.50
2023-02-28T22:56:49.753Z,11.50
2023-02-28T22:59:18.629Z,11.00
2023-02-28T23:01:48.043Z,12.00
2023-02-28T23:04:16.559Z,12.40
2023-02-28T23:06:44.883Z,11.70
2023-02-28T23:09:21.664Z,11.70
2023-02-28T23:11:51.151Z,11.10
2023-02-28T23:14:20.000Z,11.20
2023-02-28T23:16:54.564Z,10.80
2023-02-28T23:19:30.808Z,9.60
2023-02-28T23:22:01.384Z,11.70
2023-02-28T23:24:31.623Z,10.80
2023-02-28T23:27:02.236Z,10.40
2023-02-28T23:29:30.582Z,12.50
2023-02-28T23:31:58.845Z,10.60
2023-02-28T23:34:28.224Z,13.80
2023-02-28T23:37:01.668Z,11.80
2023-02-28T23:39:31.393Z,13.00
2023-02-28T23:41:59.800Z,12.60
2023-02-28T23:44:28.070Z,11.20
2023-02-28T23:46:56.177Z,9.50
2023-02-28T23:49:24.659Z,10.30
2023-02-28T23:51:54.567Z,12.80
2023-02-28T23:54:24.842Z,10.50
2023-02-28T23:56:54.233Z,13.70
2023-02-28T23:59:22.770Z,12.00
